Crew | Aerofun Virtual



 METAR AND TAF INFORMATION
METAR FOR EFKS
ADDS - METARS form results

(0811 UTC 22 July 2019)
Data provider http://aviationweather.gov/metar/data/
 
METAR text: EFKS 220750Z AUTO 22003KT 180V270 CAVOK 22/10 Q1017
Conditions at: EFKS (KUUSAMO , FI) observed 0750 UTC 22 July 2019
Temperature: 22.0°C (72°F)
Dewpoint: 10.0°C (50°F) [RH = 46%]
Pressure (altimeter): 30.03 inches Hg (1017.0 mb)
Winds: from the SW (220 degrees) at 3 MPH (3 knots; 1.5 m/s)
Visibility: 6 or more miles (10+ km)
Ceiling: ceiling and visibility are OK
Clouds: unknown
Weather: no significant weather observed at this time

METAR text: EFKS 220720Z AUTO 23004KT CAVOK 22/10 Q1017
Conditions at: EFKS (KUUSAMO , FI) observed 0720 UTC 22 July 2019
Temperature: 22.0°C (72°F)
Dewpoint: 10.0°C (50°F) [RH = 46%]
Pressure (altimeter): 30.03 inches Hg (1017.0 mb)
Winds: from the SW (230 degrees) at 5 MPH (4 knots; 2.1 m/s)
Visibility: 6 or more miles (10+ km)
Ceiling: ceiling and visibility are OK
Clouds: unknown
Weather: no significant weather observed at this time

Forecast for: EFKS (KUUSAMO , FI)
Text: TAF EFKS 220525Z 2206/2213 11003KT CAVOK
Forecast period: 0600 to 1300 UTC 22 July 2019
Forecast type: FROM: standard forecast or significant change
Winds: from the ESE (110 degrees) at 3 MPH (3 knots; 1.5 m/s)
Visibility: 6 or more miles 10+ km)
Ceiling: unknown
Clouds: missing
Weather: NSW  (no significant weather)

 AIRPORT MAP

 RUNWAY INFORMATION
Runway 12 Runway length 8202 ft Runway width 148 ft
Runway elevation 866 ft Runway displaced threshold 131 ft Runway heading 132
Runway 30 Runway length 8202 ft Runway width 148 ft
Runway elevation 865 ft Runway displaced threshold 0 ft Runway heading 312

 AIRPORT FREQUENCIES
Type AFIS Name AFIS Frequency 118.65 MHZ
Type ATIS Name ATIS Frequency 114.4 MHZ

 AIRPORT NEAR NAVIGATION AIDS
Type VOR-DME Name Kantola Frequency 114400 KHZ
Type NDB Name Kilo-Sierra Frequency 340 KHZ